sensor_id;sensor_type;location;lat;lon;timestamp;temperature;humidity
43607;DHT22;29197;44.788;10.366;2022-07-23T12:41:09;37.90;75.30
43607;DHT22;29197;44.788;10.366;2022-07-23T12:43:58;38.00;76.40
43607;DHT22;29197;44.788;10.366;2022-07-23T12:46:50;38.10;76.80
43607;DHT22;29197;44.788;10.366;2022-07-23T12:49:39;38.20;76.50
43607;DHT22;29197;44.788;10.366;2022-07-23T12:52:28;38.30;76.00
43607;DHT22;29197;44.788;10.366;2022-07-23T12:55:28;38.40;75.70
43607;DHT22;29197;44.788;10.366;2022-07-23T12:58:46;38.40;75.10
43607;DHT22;29197;44.788;10.366;2022-07-23T13:01:39;38.50;75.40
43607;DHT22;29197;44.788;10.366;2022-07-23T13:04:30;38.50;75.00
43607;DHT22;29197;44.788;10.366;2022-07-23T13:07:21;38.40;75.20
43607;DHT22;29197;44.788;10.366;2022-07-23T13:10:11;38.40;74.60
43607;DHT22;29197;44.788;10.366;2022-07-23T13:13:02;38.40;75.30
43607;DHT22;29197;44.788;10.366;2022-07-23T13:16:03;38.50;75.50
43607;DHT22;29197;44.788;10.366;2022-07-23T13:18:57;38.60;75.80
43607;DHT22;29197;44.788;10.366;2022-07-23T13:21:48;38.70;75.30
43607;DHT22;29197;44.788;10.366;2022-07-23T13:24:37;38.70;74.10
43607;DHT22;29197;44.788;10.366;2022-07-23T13:27:27;38.70;74.60
43607;DHT22;29197;44.788;10.366;2022-07-23T13:30:18;38.70;74.70
43607;DHT22;29197;44.788;10.366;2022-07-23T13:33:11;38.80;75.00
43607;DHT22;29197;44.788;10.366;2022-07-23T13:36:02;38.70;74.00
43607;DHT22;29197;44.788;10.366;2022-07-23T13:38:52;38.80;74.50
43607;DHT22;29197;44.788;10.366;2022-07-23T13:41:42;38.80;74.40
43607;DHT22;29197;44.788;10.366;2022-07-23T13:44:37;38.80;74.80
43607;DHT22;29197;44.788;10.366;2022-07-23T13:47:28;39.00;74.00
43607;DHT22;29197;44.788;10.366;2022-07-23T13:50:17;39.00;74.30
43607;DHT22;29197;44.788;10.366;2022-07-23T13:53:10;39.10;75.70
43607;DHT22;29197;44.788;10.366;2022-07-23T13:55:59;39.10;74.90
43607;DHT22;29197;44.788;10.366;2022-07-23T13:58:49;39.10;74.50
43607;DHT22;29197;44.788;10.366;2022-07-23T14:01:38;39.10;74.30
43607;DHT22;29197;44.788;10.366;2022-07-23T14:04:48;38.90;74.40
43607;DHT22;29197;44.788;10.366;2022-07-23T14:07:38;38.50;74.70
43607;DHT22;29197;44.788;10.366;2022-07-23T14:10:28;38.40;75.60
43607;DHT22;29197;44.788;10.366;2022-07-23T14:13:17;38.40;76.10
43607;DHT22;29197;44.788;10.366;2022-07-23T14:16:08;38.50;75.40
43607;DHT22;29197;44.788;10.366;2022-07-23T14:18:57;38.60;75.40
43607;DHT22;29197;44.788;10.366;2022-07-23T14:21:49;38.60;75.60
43607;DHT22;29197;44.788;10.366;2022-07-23T14:24:39;38.60;75.40
43607;DHT22;29197;44.788;10.366;2022-07-23T14:27:29;38.70;75.60
43607;DHT22;29197;44.788;10.366;2022-07-23T14:30:18;38.80;75.80
43607;DHT22;29197;44.788;10.366;2022-07-23T14:33:10;38.80;76.00
43607;DHT22;29197;44.788;10.366;2022-07-23T14:35:59;38.90;75.70
43607;DHT22;29197;44.788;10.366;2022-07-23T14:38:50;39.00;75.80
43607;DHT22;29197;44.788;10.366;2022-07-23T14:41:39;39.00;75.50
43607;DHT22;29197;44.788;10.366;2022-07-23T14:44:29;38.80;76.30
43607;DHT22;29197;44.788;10.366;2022-07-23T14:47:18;38.60;76.50
43607;DHT22;29197;44.788;10.366;2022-07-23T14:50:08;38.50;76.60
43607;DHT22;29197;44.788;10.366;2022-07-23T14:52:58;38.50;76.30
43607;DHT22;29197;44.788;10.366;2022-07-23T14:55:49;38.30;74.80
43607;DHT22;29197;44.788;10.366;2022-07-23T14:58:39;38.10;72.10
43607;DHT22;29197;44.788;10.366;2022-07-23T15:01:29;37.90;71.50
43607;DHT22;29197;44.788;10.366;2022-07-23T15:04:21;37.60;72.10
43607;DHT22;29197;44.788;10.366;2022-07-23T15:07:23;37.70;98.70
43607;DHT22;29197;44.788;10.366;2022-07-23T15:10:14;37.20;71.80
43607;DHT22;29197;44.788;10.366;2022-07-23T15:13:10;37.10;71.80
43607;DHT22;29197;44.788;10.366;2022-07-23T15:16:00;37.20;71.90
43607;DHT22;29197;44.788;10.366;2022-07-23T15:18:52;37.20;71.90
43607;DHT22;29197;44.788;10.366;2022-07-23T15:21:42;37.10;71.50
43607;DHT22;29197;44.788;10.366;2022-07-23T15:24:35;36.90;71.90
43607;DHT22;29197;44.788;10.366;2022-07-23T15:27:27;36.80;71.60
43607;DHT22;29197;44.788;10.366;2022-07-23T15:30:18;36.70;72.00
43607;DHT22;29197;44.788;10.366;2022-07-23T15:33:09;36.50;86.30
43607;DHT22;29197;44.788;10.366;2022-07-23T15:36:08;36.50;72.30
43607;DHT22;29197;44.788;10.366;2022-07-23T15:38:57;36.60;72.10
43607;DHT22;29197;44.788;10.366;2022-07-23T15:41:49;36.60;71.50
43607;DHT22;29197;44.788;10.366;2022-07-23T15:44:38;36.50;71.10
43607;DHT22;29197;44.788;10.366;2022-07-23T15:47:30;36.50;71.40
43607;DHT22;29197;44.788;10.366;2022-07-23T15:50:19;36.50;71.60
43607;DHT22;29197;44.788;10.366;2022-07-23T15:53:11;36.50;71.50
43607;DHT22;29197;44.788;10.366;2022-07-23T15:56:03;36.50;71.20
43607;DHT22;29197;44.788;10.366;2022-07-23T16:01:45;36.40;69.40
43607;DHT22;29197;44.788;10.366;2022-07-23T16:04:36;36.40;70.10
43607;DHT22;29197;44.788;10.366;2022-07-23T16:07:26;36.40;70.30
43607;DHT22;29197;44.788;10.366;2022-07-23T16:10:18;36.50;70.60
43607;DHT22;29197;44.788;10.366;2022-07-23T16:13:09;36.50;70.80
43607;DHT22;29197;44.788;10.366;2022-07-23T16:15:58;36.50;70.10
43607;DHT22;29197;44.788;10.366;2022-07-23T16:18:47;36.40;70.60
43607;DHT22;29197;44.788;10.366;2022-07-23T16:21:40;36.40;71.10
43607;DHT22;29197;44.788;10.366;2022-07-23T16:24:29;36.30;70.60
43607;DHT22;29197;44.788;10.366;2022-07-23T16:27:19;36.20;70.80
43607;DHT22;29197;44.788;10.366;2022-07-23T16:30:10;36.20;71.00
43607;DHT22;29197;44.788;10.366;2022-07-23T16:33:00;36.20;70.20
43607;DHT22;29197;44.788;10.366;2022-07-23T16:35:53;36.10;70.00
43607;DHT22;29197;44.788;10.366;2022-07-23T16:38:43;36.10;70.20
43607;DHT22;29197;44.788;10.366;2022-07-23T16:41:33;36.10;70.10
43607;DHT22;29197;44.788;10.366;2022-07-23T16:44:22;36.10;70.60
43607;DHT22;29197;44.788;10.366;2022-07-23T16:47:11;36.10;69.90
43607;DHT22;29197;44.788;10.366;2022-07-23T16:50:01;36.10;69.90
43607;DHT22;29197;44.788;10.366;2022-07-23T16:52:54;36.10;70.20
43607;DHT22;29197;44.788;10.366;2022-07-23T16:55:46;36.00;70.80
43607;DHT22;29197;44.788;10.366;2022-07-23T16:58:36;36.10;70.40
43607;DHT22;29197;44.788;10.366;2022-07-23T17:01:27;36.00;70.30
43607;DHT22;29197;44.788;10.366;2022-07-23T17:04:16;36.00;70.70
43607;DHT22;29197;44.788;10.366;2022-07-23T17:07:07;35.80;69.30
43607;DHT22;29197;44.788;10.366;2022-07-23T17:12:50;35.60;68.00
43607;DHT22;29197;44.788;10.366;2022-07-23T17:15:39;35.60;68.70
43607;DHT22;29197;44.788;10.366;2022-07-23T17:18:29;35.50;68.40
43607;DHT22;29197;44.788;10.366;2022-07-23T17:21:19;35.40;68.40
43607;DHT22;29197;44.788;10.366;2022-07-23T17:24:08;35.30;69.20
43607;DHT22;29197;44.788;10.366;2022-07-23T17:26:57;35.30;68.60
43607;DHT22;29197;44.788;10.366;2022-07-23T17:29:53;35.30;69.00
43607;DHT22;29197;44.788;10.366;2022-07-23T17:32:43;35.20;69.50
43607;DHT22;29197;44.788;10.366;2022-07-23T17:35:32;35.30;69.80
43607;DHT22;29197;44.788;10.366;2022-07-23T17:38:22;35.10;72.80
43607;DHT22;29197;44.788;10.366;2022-07-23T17:41:11;35.00;70.60
43607;DHT22;29197;44.788;10.366;2022-07-23T17:44:00;35.00;71.10
43607;DHT22;29197;44.788;10.366;2022-07-23T17:46:51;34.90;71.30
43607;DHT22;29197;44.788;10.366;2022-07-23T17:49:40;34.90;79.50
43607;DHT22;29197;44.788;10.366;2022-07-23T17:52:29;34.90;79.90
43607;DHT22;29197;44.788;10.366;2022-07-23T17:55:19;34.90;80.50
43607;DHT22;29197;44.788;10.366;2022-07-23T17:58:09;34.80;91.50
43607;DHT22;29197;44.788;10.366;2022-07-23T18:00:59;34.70;88.40
43607;DHT22;29197;44.788;10.366;2022-07-23T18:03:51;34.70;88.80
43607;DHT22;29197;44.788;10.366;2022-07-23T18:06:41;34.70;92.60
43607;DHT22;29197;44.788;10.366;2022-07-23T18:09:30;34.60;89.60
43607;DHT22;29197;44.788;10.366;2022-07-23T18:12:19;34.60;89.30
43607;DHT22;29197;44.788;10.366;2022-07-23T18:15:09;34.50;73.80
43607;DHT22;29197;44.788;10.366;2022-07-23T18:17:58;34.50;73.70
43607;DHT22;29197;44.788;10.366;2022-07-23T18:20:49;34.40;72.70
43607;DHT22;29197;44.788;10.366;2022-07-23T18:23:39;34.40;88.70
43607;DHT22;29197;44.788;10.366;2022-07-23T18:26:28;34.30;94.60
43607;DHT22;29197;44.788;10.366;2022-07-23T18:29:19;34.30;93.90
43607;DHT22;29197;44.788;10.366;2022-07-23T18:32:09;34.20;93.40
43607;DHT22;29197;44.788;10.366;2022-07-23T18:34:58;34.10;94.40
43607;DHT22;29197;44.788;10.366;2022-07-23T18:40:40;34.00;99.90
43607;DHT22;29197;44.788;10.366;2022-07-23T18:43:31;33.90;89.10
43607;DHT22;29197;44.788;10.366;2022-07-23T18:46:23;33.90;89.80
43607;DHT22;29197;44.788;10.366;2022-07-23T18:49:12;33.70;84.80
43607;DHT22;29197;44.788;10.366;2022-07-23T19:09:02;33.30;73.10
43607;DHT22;29197;44.788;10.366;2022-07-23T19:11:55;33.20;74.10
43607;DHT22;29197;44.788;10.366;2022-07-23T19:14:44;32.90;74.90
43607;DHT22;29197;44.788;10.366;2022-07-23T19:17:33;32.90;74.90
43607;DHT22;29197;44.788;10.366;2022-07-23T19:20:22;33.00;74.90
43607;DHT22;29197;44.788;10.366;2022-07-23T19:23:12;32.90;80.60
43607;DHT22;29197;44.788;10.366;2022-07-23T19:26:01;32.90;96.50
43607;DHT22;29197;44.788;10.366;2022-07-23T19:45:56;32.90;99.90
43607;DHT22;29197;44.788;10.366;2022-07-23T19:48:45;32.70;76.90
43607;DHT22;29197;44.788;10.366;2022-07-23T19:51:35;32.70;77.00
43607;DHT22;29197;44.788;10.366;2022-07-23T19:54:25;32.70;91.00
43607;DHT22;29197;44.788;10.366;2022-07-23T20:08:35;32.10;99.90
43607;DHT22;29197;44.788;10.366;2022-07-23T20:11:24;32.10;96.80
43607;DHT22;29197;44.788;10.366;2022-07-23T20:14:17;32.00;99.90
43607;DHT22;29197;44.788;10.366;2022-07-23T20:39:46;31.70;99.90
43607;DHT22;29197;44.788;10.366;2022-07-23T21:05:23;31.30;99.20
43607;DHT22;29197;44.788;10.366;2022-07-23T21:11:04;30.90;94.10
43607;DHT22;29197;44.788;10.366;2022-07-23T21:13:53;31.00;94.30
43607;DHT22;29197;44.788;10.366;2022-07-23T21:16:43;31.10;94.30
43607;DHT22;29197;44.788;10.366;2022-07-23T21:19:32;30.90;98.20
43607;DHT22;29197;44.788;10.366;2022-07-23T21:22:22;30.90;93.00
43607;DHT22;29197;44.788;10.366;2022-07-23T21:25:12;31.00;92.80
43607;DHT22;29197;44.788;10.366;2022-07-23T21:28:04;31.00;92.60
43607;DHT22;29197;44.788;10.366;2022-07-23T21:30:53;30.80;99.90
43607;DHT22;29197;44.788;10.366;2022-07-23T21:33:42;30.70;93.30
43607;DHT22;29197;44.788;10.366;2022-07-23T21:36:33;30.80;93.30
43607;DHT22;29197;44.788;10.366;2022-07-23T22:30:29;30.20;90.70
43607;DHT22;29197;44.788;10.366;2022-07-23T22:33:19;30.60;92.30
43607;DHT22;29197;44.788;10.366;2022-07-23T22:36:10;30.10;92.90
43607;DHT22;29197;44.788;10.366;2022-07-23T22:38:59;30.20;93.00
43607;DHT22;29197;44.788;10.366;2022-07-23T22:41:49;30.10;93.40
43607;DHT22;29197;44.788;10.366;2022-07-23T22:44:40;30.00;93.80
43607;DHT22;29197;44.788;10.366;2022-07-23T22:47:29;30.10;94.90
43607;DHT22;29197;44.788;10.366;2022-07-23T22:50:21;30.00;95.20
43607;DHT22;29197;44.788;10.366;2022-07-23T22:53:12;30.10;95.10
43607;DHT22;29197;44.788;10.366;2022-07-23T22:56:02;30.00;95.60
43607;DHT22;29197;44.788;10.366;2022-07-23T22:58:51;29.80;97.40
43607;DHT22;29197;44.788;10.366;2022-07-23T23:02:00;29.70;98.20
43607;DHT22;29197;44.788;10.366;2022-07-23T23:04:50;29.80;98.10
43607;DHT22;29197;44.788;10.366;2022-07-23T23:07:39;29.80;98.10
43607;DHT22;29197;44.788;10.366;2022-07-23T23:10:30;29.80;98.10
43607;DHT22;29197;44.788;10.366;2022-07-23T23:13:19;29.80;98.10
43607;DHT22;29197;44.788;10.366;2022-07-23T23:16:09;29.70;99.90
43607;DHT22;29197;44.788;10.366;2022-07-23T23:18:58;29.70;99.90
43607;DHT22;29197;44.788;10.366;2022-07-23T23:21:48;29.60;99.90
43607;DHT22;29197;44.788;10.366;2022-07-23T23:24:37;29.80;99.90
43607;DHT22;29197;44.788;10.366;2022-07-23T23:27:28;29.80;99.90
43607;DHT22;29197;44.788;10.366;2022-07-23T23:30:17;29.90;99.90
43607;DHT22;29197;44.788;10.366;2022-07-23T23:33:06;29.90;99.90
43607;DHT22;29197;44.788;10.366;2022-07-23T23:35:56;29.80;99.90
43607;DHT22;29197;44.788;10.366;2022-07-23T23:38:45;29.80;99.90
43607;DHT22;29197;44.788;10.366;2022-07-23T23:41:35;29.80;99.90
43607;DHT22;29197;44.788;10.366;2022-07-23T23:44:25;29.80;99.90
43607;DHT22;29197;44.788;10.366;2022-07-23T23:47:15;29.90;99.90
43607;DHT22;29197;44.788;10.366;2022-07-23T23:50:05;29.90;99.90
43607;DHT22;29197;44.788;10.366;2022-07-23T23:52:55;29.80;99.90
43607;DHT22;29197;44.788;10.366;2022-07-23T23:55:45;29.90;99.90
43607;DHT22;29197;44.788;10.366;2022-07-23T23:58:34;29.80;99.90
